NOZ6YE ENGM-LEPA
Flight info
| Callsign | NOZ6YE |
|---|---|
| Flight time | N/A |
| Altitude | 34000 |
| Route | VIPPA DCT BINRO DCT LUTIR DCT IBESA/N0459F350 DCT LIMGO DCT SUTAL DCT GTQ DCT POGOL DCT LASAT DCT MOROK DCT GILIR DCT GEVEA DCT INCUS DCT BALSI DCT RETNO DCT TUPOX DCT MTG DCT DIVKO DCT VATIR DCT PIVUS DCT BODEQ DCT VERSO L129 LUNIK |
| Aircraft | B738/M-SDE2E3FGHIRWXY/LB1 |
Departure
| Time | 2026-05-05 11:06 |
|---|---|
| Airport | Oslo-Gardermoen International Airport (ENGM) |
Arrival
| Time | N/A |
|---|---|
| Airport | Palma de Mallorca Airport (LEPA) |
| Time | Latitude | Longitude | Altitude | Speed | Heading |
|---|---|---|---|---|---|
| 2026-05-05 10:39 | 60.19593 | 11.09932 | 684 ft | 0 kts | 106° |
| 2026-05-05 10:54 | 60.19598 | 11.09897 | 679 ft | 4 kts | 106° |
| 2026-05-05 10:54 | 60.19605 | 11.09846 | 683 ft | 3 kts | 106° |
| 2026-05-05 10:54 | 60.19605 | 11.09841 | 682 ft | 1 kts | 106° |
| 2026-05-05 10:58 | 60.19606 | 11.09853 | 683 ft | 2 kts | 82° |
| 2026-05-05 10:58 | 60.19620 | 11.09876 | 701 ft | 4 kts | 16° |
| 2026-05-05 10:59 | 60.19660 | 11.09870 | 684 ft | 7 kts | 351° |
| 2026-05-05 10:59 | 60.19720 | 11.09833 | 681 ft | 10 kts | 337° |
| 2026-05-05 10:59 | 60.19793 | 11.09814 | 683 ft | 12 kts | 17° |
| 2026-05-05 10:59 | 60.19874 | 11.09862 | 682 ft | 13 kts | 16° |
| 2026-05-05 11:00 | 60.19958 | 11.09906 | 683 ft | 11 kts | 1° |
| 2026-05-05 11:00 | 60.20003 | 11.09793 | 679 ft | 12 kts | 287° |
| 2026-05-05 11:00 | 60.20026 | 11.09631 | 682 ft | 13 kts | 286° |
| 2026-05-05 11:00 | 60.20051 | 11.09459 | 681 ft | 13 kts | 286° |
| 2026-05-05 11:01 | 60.20076 | 11.09279 | 680 ft | 14 kts | 286° |
| 2026-05-05 11:01 | 60.20103 | 11.09090 | 677 ft | 14 kts | 285° |
| 2026-05-05 11:01 | 60.20143 | 11.08909 | 680 ft | 14 kts | 331° |
| 2026-05-05 11:01 | 60.20238 | 11.08940 | 680 ft | 14 kts | 16° |
| 2026-05-05 11:02 | 60.20328 | 11.08990 | 679 ft | 13 kts | 15° |
| 2026-05-05 11:02 | 60.20414 | 11.09040 | 681 ft | 13 kts | 16° |
| 2026-05-05 11:02 | 60.20497 | 11.09088 | 681 ft | 13 kts | 16° |
| 2026-05-05 11:02 | 60.20586 | 11.09140 | 681 ft | 14 kts | 16° |
| 2026-05-05 11:03 | 60.20688 | 11.09198 | 682 ft | 16 kts | 16° |
| 2026-05-05 11:03 | 60.20803 | 11.09265 | 683 ft | 18 kts | 16° |
| 2026-05-05 11:03 | 60.20927 | 11.09337 | 684 ft | 19 kts | 16° |
| 2026-05-05 11:03 | 60.21057 | 11.09411 | 682 ft | 20 kts | 16° |
| 2026-05-05 11:04 | 60.21189 | 11.09488 | 680 ft | 20 kts | 16° |
| 2026-05-05 11:04 | 60.21320 | 11.09563 | 684 ft | 19 kts | 16° |
| 2026-05-05 11:04 | 60.21445 | 11.09636 | 684 ft | 18 kts | 15° |
| 2026-05-05 11:04 | 60.21543 | 11.09527 | 682 ft | 18 kts | 290° |
| 2026-05-05 11:05 | 60.21576 | 11.09292 | 683 ft | 17 kts | 279° |
| 2026-05-05 11:05 | 60.21518 | 11.09114 | 681 ft | 14 kts | 202° |
| 2026-05-05 11:05 | 60.21429 | 11.09064 | 682 ft | 13 kts | 195° |
| 2026-05-05 11:05 | 60.21277 | 11.08976 | 681 ft | 51 kts | 196° |
| 2026-05-05 11:06 | 60.20687 | 11.08634 | 678 ft | 123 kts | 195° |
| 2026-05-05 11:06 | 60.19662 | 11.08062 | 757 ft | 173 kts | 195° |
| 2026-05-05 11:06 | 60.18541 | 11.07524 | 1674 ft | 164 kts | 198° |
| 2026-05-05 11:06 | 60.17432 | 11.06896 | 2518 ft | 166 kts | 202° |
| 2026-05-05 11:07 | 60.16380 | 11.05719 | 2922 ft | 186 kts | 231° |
| 2026-05-05 11:07 | 60.15755 | 11.03371 | 3353 ft | 198 kts | 256° |
| 2026-05-05 11:07 | 60.15246 | 11.00596 | 3622 ft | 222 kts | 248° |
| 2026-05-05 11:07 | 60.14584 | 10.97633 | 3901 ft | 244 kts | 248° |
| 2026-05-05 11:08 | 60.13894 | 10.94420 | 4647 ft | 249 kts | 248° |
| 2026-05-05 11:08 | 60.13184 | 10.91243 | 5558 ft | 252 kts | 248° |
| 2026-05-05 11:08 | 60.12447 | 10.88005 | 6344 ft | 257 kts | 247° |
| 2026-05-05 11:08 | 60.11697 | 10.84740 | 7187 ft | 259 kts | 247° |
| 2026-05-05 11:09 | 60.10946 | 10.81477 | 7969 ft | 263 kts | 247° |
| 2026-05-05 11:09 | 60.10174 | 10.78134 | 8815 ft | 266 kts | 246° |
| 2026-05-05 11:09 | 60.09394 | 10.74763 | 9655 ft | 268 kts | 246° |
| 2026-05-05 11:09 | 60.08600 | 10.71331 | 10277 ft | 278 kts | 247° |
| 2026-05-05 11:10 | 60.07749 | 10.67657 | 10473 ft | 302 kts | 247° |
| 2026-05-05 11:10 | 60.06833 | 10.63706 | 10680 ft | 324 kts | 247° |
| 2026-05-05 11:10 | 60.05790 | 10.59520 | 10831 ft | 347 kts | 239° |
| 2026-05-05 11:10 | 60.04051 | 10.56005 | 11204 ft | 367 kts | 215° |
| 2026-05-05 11:11 | 60.01663 | 10.54023 | 11824 ft | 379 kts | 196° |
| 2026-05-05 11:11 | 59.99053 | 10.53089 | 12571 ft | 382 kts | 194° |
| 2026-05-05 11:11 | 59.96409 | 10.52245 | 13249 ft | 387 kts | 194° |
| 2026-05-05 11:11 | 59.93734 | 10.51417 | 13901 ft | 391 kts | 194° |
| 2026-05-05 11:12 | 59.91048 | 10.50576 | 14577 ft | 392 kts | 195° |
| 2026-05-05 11:12 | 59.88357 | 10.49717 | 15304 ft | 391 kts | 195° |
| 2026-05-05 11:12 | 59.85703 | 10.48853 | 15969 ft | 392 kts | 196° |
| 2026-05-05 11:12 | 59.83002 | 10.47962 | 16592 ft | 394 kts | 197° |
| 2026-05-05 11:13 | 59.80288 | 10.47061 | 17239 ft | 395 kts | 197° |
| 2026-05-05 11:13 | 59.77574 | 10.46161 | 17888 ft | 396 kts | 198° |
| 2026-05-05 11:13 | 59.74852 | 10.45243 | 18389 ft | 398 kts | 199° |
| 2026-05-05 11:13 | 59.72109 | 10.44337 | 18883 ft | 400 kts | 199° |
| 2026-05-05 11:14 | 59.69378 | 10.43438 | 19338 ft | 403 kts | 199° |
| 2026-05-05 11:14 | 59.66603 | 10.42525 | 19833 ft | 405 kts | 200° |
| 2026-05-05 11:14 | 59.63807 | 10.41606 | 20302 ft | 407 kts | 200° |
| 2026-05-05 11:14 | 59.61914 | 10.40983 | 20606 ft | 409 kts | 200° |
| 2026-05-05 11:15 | 59.59141 | 10.40072 | 21044 ft | 411 kts | 200° |
| 2026-05-05 11:15 | 59.56310 | 10.39130 | 21463 ft | 413 kts | 200° |
| 2026-05-05 11:15 | 59.53465 | 10.38166 | 21866 ft | 415 kts | 201° |
| 2026-05-05 11:15 | 59.50607 | 10.37194 | 22271 ft | 418 kts | 201° |
| 2026-05-05 11:16 | 59.47733 | 10.36219 | 22690 ft | 420 kts | 201° |